createdAt,value
2024-04-13T00:02:25.988Z,3.63
2024-04-13T00:04:56.127Z,3.67
2024-04-13T00:07:25.709Z,3.72
2024-04-13T00:09:54.525Z,3.85
2024-04-13T00:12:21.693Z,3.72
2024-04-13T00:14:49.277Z,3.80
2024-04-13T00:17:16.476Z,4.05
2024-04-13T00:19:46.313Z,3.47
2024-04-13T00:22:16.384Z,3.78
2024-04-13T00:24:43.860Z,3.35
2024-04-13T00:27:11.202Z,3.22
2024-04-13T00:29:38.654Z,3.78
2024-04-13T00:32:06.623Z,3.97
2024-04-13T00:34:35.309Z,3.72
2024-04-13T00:37:04.998Z,3.67
2024-04-13T00:39:35.623Z,3.80
2024-04-13T00:42:07.535Z,3.67
2024-04-13T00:44:34.769Z,3.67
2024-04-13T00:47:08.497Z,3.20
2024-04-13T00:49:38.441Z,3.70
2024-04-13T00:52:08.905Z,3.47
2024-04-13T00:54:41.189Z,3.08
2024-04-13T00:57:11.070Z,3.63
2024-04-13T00:59:42.080Z,3.25
2024-04-13T01:02:14.487Z,2.95
2024-04-13T01:04:43.331Z,3.20
2024-04-13T01:07:11.238Z,3.40
2024-04-13T01:09:42.316Z,3.42
2024-04-13T01:12:11.277Z,3.33
2024-04-13T01:14:38.753Z,3.35
2024-04-13T01:17:06.987Z,2.95
2024-04-13T01:19:34.463Z,3.60
2024-04-13T01:22:03.424Z,3.25
2024-04-13T01:24:33.779Z,2.45
2024-04-13T01:27:01.256Z,3.00
2024-04-13T01:29:28.488Z,2.92
2024-04-13T01:31:55.687Z,2.80
2024-04-13T01:34:23.171Z,2.13
2024-04-13T01:36:50.317Z,2.70
2024-04-13T01:39:17.742Z,2.63
2024-04-13T01:41:51.591Z,2.75
2024-04-13T01:44:20.016Z,2.80
2024-04-13T01:46:47.474Z,2.72
2024-04-13T01:49:14.910Z,2.67
2024-04-13T01:51:42.141Z,2.60
2024-04-13T01:54:09.590Z,2.80
2024-04-13T01:56:37.376Z,2.70
2024-04-13T01:59:07.584Z,2.45
2024-04-13T02:01:35.328Z,2.67
2024-04-13T02:04:06.081Z,2.58
2024-04-13T02:06:33.319Z,2.40
2024-04-13T02:09:00.929Z,2.38
2024-04-13T02:11:28.197Z,2.83
2024-04-13T02:13:55.564Z,2.65
2024-04-13T02:16:26.779Z,1.88
2024-04-13T02:18:54.045Z,2.80
2024-04-13T02:21:21.912Z,2.50
2024-04-13T02:23:49.213Z,2.95
2024-04-13T02:26:16.808Z,2.60
2024-04-13T02:28:44.026Z,2.65
2024-04-13T02:31:11.588Z,2.53
2024-04-13T02:33:41.719Z,2.58
2024-04-13T02:36:09.602Z,2.72
2024-04-13T02:38:36.843Z,2.17
2024-04-13T02:41:07.150Z,2.75
2024-04-13T02:43:36.193Z,2.80
2024-04-13T02:46:05.018Z,2.33
2024-04-13T02:48:33.999Z,2.50
2024-04-13T02:51:07.310Z,2.42
2024-04-13T02:53:35.960Z,2.30
2024-04-13T02:56:03.331Z,2.15
2024-04-13T02:58:30.858Z,2.15
2024-04-13T03:00:59.337Z,3.22
2024-04-13T03:03:27.222Z,2.10
2024-04-13T03:06:05.128Z,2.28
2024-04-13T03:08:32.929Z,2.60
2024-04-13T03:11:01.754Z,2.13
2024-04-13T03:13:30.216Z,2.40
2024-04-13T03:16:01.083Z,2.45
2024-04-13T03:18:28.424Z,2.28
2024-04-13T03:20:55.779Z,2.60
2024-04-13T03:23:26.066Z,2.53
2024-04-13T03:25:53.650Z,2.22
2024-04-13T03:28:23.172Z,2.00
2024-04-13T03:30:50.652Z,2.83
2024-04-13T03:33:18.105Z,2.35
2024-04-13T03:35:46.029Z,2.20
2024-04-13T03:38:14.175Z,2.13
2024-04-13T03:40:46.148Z,2.17
2024-04-13T03:43:15.564Z,1.95
2024-04-13T03:45:42.900Z,2.65
2024-04-13T03:48:10.310Z,2.03
2024-04-13T03:50:41.109Z,2.40
2024-04-13T03:53:08.437Z,2.13
2024-04-13T03:55:35.749Z,1.90
2024-04-13T03:58:05.870Z,2.42
2024-04-13T04:00:33.250Z,2.30
2024-04-13T04:03:00.643Z,2.10
2024-04-13T04:05:28.764Z,2.40
2024-04-13T04:07:56.278Z,2.00
2024-04-13T04:10:23.708Z,2.20
2024-04-13T04:12:51.004Z,2.17
2024-04-13T04:15:20.821Z,1.70
2024-04-13T04:17:48.107Z,2.08
2024-04-13T04:20:15.666Z,2.42
2024-04-13T04:22:42.877Z,2.10
2024-04-13T04:25:10.136Z,2.25
2024-04-13T04:27:37.338Z,2.47
2024-04-13T04:30:05.407Z,1.90
2024-04-13T04:32:35.376Z,2.33
2024-04-13T04:35:02.524Z,2.20
2024-04-13T04:37:29.656Z,2.17
2024-04-13T04:39:56.787Z,2.08
2024-04-13T04:42:25.436Z,2.28
2024-04-13T04:44:52.609Z,2.13
2024-04-13T04:47:20.193Z,2.10
2024-04-13T04:49:50.176Z,2.30
2024-04-13T04:52:20.875Z,2.38
2024-04-13T04:54:48.146Z,2.33
2024-04-13T04:57:15.316Z,2.40
2024-04-13T04:59:42.884Z,2.20
2024-04-13T05:02:10.053Z,2.28
2024-04-13T05:04:40.322Z,2.40
2024-04-13T05:07:10.100Z,2.30
2024-04-13T05:09:37.440Z,2.30
2024-04-13T05:12:04.923Z,2.45
2024-04-13T05:14:32.699Z,2.50
2024-04-13T05:16:59.832Z,2.30
2024-04-13T05:19:27.080Z,2.60
2024-04-13T05:21:54.373Z,2.75
2024-04-13T05:24:24.265Z,3.22
2024-04-13T05:26:56.951Z,3.75
2024-04-13T05:29:24.497Z,3.35
2024-04-13T05:31:51.725Z,3.92
2024-04-13T05:34:19.114Z,3.95
2024-04-13T05:36:46.719Z,4.05
2024-04-13T05:39:15.681Z,4.60
2024-04-13T05:41:45.805Z,4.05
2024-04-13T05:44:12.946Z,4.05
2024-04-13T05:46:40.484Z,3.95
2024-04-13T05:49:09.386Z,4.10
2024-04-13T05:51:36.655Z,4.00
2024-04-13T05:54:04.001Z,4.30
2024-04-13T05:56:31.252Z,4.20
2024-04-13T05:59:01.056Z,4.65
2024-04-13T06:01:29.643Z,4.45
2024-04-13T06:03:57.413Z,4.80
2024-04-13T06:06:24.725Z,4.03
2024-04-13T06:08:52.394Z,4.45
2024-04-13T06:11:19.594Z,4.28
2024-04-13T06:13:47.108Z,4.30
2024-04-13T06:16:16.955Z,4.18
2024-04-13T06:18:44.763Z,3.42
2024-04-13T06:21:11.943Z,4.00
2024-04-13T06:23:39.624Z,4.43
2024-04-13T06:26:07.247Z,4.20
2024-04-13T06:28:34.390Z,4.43
2024-04-13T06:31:01.798Z,4.50
2024-04-13T06:33:31.807Z,4.50
2024-04-13T06:35:59.054Z,4.30
2024-04-13T06:38:28.166Z,4.00
2024-04-13T06:40:55.636Z,4.28
2024-04-13T06:43:25.496Z,4.15
2024-04-13T06:45:52.738Z,4.60
2024-04-13T06:48:20.013Z,3.88
2024-04-13T06:50:50.435Z,4.15
2024-04-13T06:53:17.757Z,3.80
2024-04-13T06:55:46.654Z,4.43
2024-04-13T06:58:14.099Z,4.28
2024-04-13T07:00:44.055Z,4.00
2024-04-13T07:03:12.527Z,4.00
2024-04-13T07:05:39.764Z,3.30
2024-04-13T07:08:11.327Z,4.15
2024-04-13T07:10:38.783Z,3.72
2024-04-13T07:13:08.801Z,3.75
2024-04-13T07:15:36.771Z,3.50
2024-04-13T07:18:04.788Z,3.13
2024-04-13T07:20:31.947Z,3.22
2024-04-13T07:22:59.141Z,3.10
2024-04-13T07:25:29.292Z,2.70
2024-04-13T07:27:56.583Z,3.10
2024-04-13T07:30:23.738Z,3.42
2024-04-13T07:32:51.080Z,3.08
2024-04-13T07:35:18.409Z,3.53
2024-04-13T07:37:45.534Z,3.13
2024-04-13T07:40:12.776Z,3.13
2024-04-13T07:42:42.679Z,3.17
2024-04-13T07:45:10.246Z,2.92
2024-04-13T07:47:37.508Z,3.67
2024-04-13T07:50:05.240Z,2.80
2024-04-13T07:52:32.481Z,2.38
2024-04-13T07:55:00.034Z,2.50
2024-04-13T07:57:27.684Z,2.97
2024-04-13T07:59:57.413Z,2.88
2024-04-13T08:02:24.573Z,2.65
2024-04-13T08:04:52.047Z,3.47
2024-04-13T08:07:19.258Z,2.63
2024-04-13T08:09:46.454Z,2.80
2024-04-13T08:12:13.719Z,2.70
2024-04-13T08:14:41.205Z,2.55
2024-04-13T08:17:11.097Z,2.80
2024-04-13T08:19:38.235Z,2.80
2024-04-13T08:22:07.051Z,2.78
2024-04-13T08:24:34.439Z,2.42
2024-04-13T08:27:01.924Z,2.78
2024-04-13T08:29:29.163Z,2.72
2024-04-13T08:31:56.746Z,2.60
2024-04-13T08:34:28.110Z,2.83
2024-04-13T08:36:55.289Z,2.50
2024-04-13T08:39:22.621Z,3.03
2024-04-13T08:42:04.917Z,3.20
2024-04-13T08:44:32.714Z,2.33
2024-04-13T08:47:01.401Z,2.63
2024-04-13T08:49:32.446Z,2.05
2024-04-13T08:52:00.803Z,2.33
2024-04-13T08:54:31.416Z,1.95
2024-04-13T08:57:01.578Z,2.67
2024-04-13T08:59:29.459Z,2.45
2024-04-13T09:01:57.973Z,2.95
2024-04-13T09:04:25.470Z,2.15
2024-04-13T09:06:58.771Z,2.15
2024-04-13T09:09:26.558Z,2.30
2024-04-13T09:11:53.872Z,2.03
2024-04-13T09:14:21.104Z,2.50
2024-04-13T09:16:48.455Z,2.10
2024-04-13T09:19:15.655Z,2.35
2024-04-13T09:21:44.277Z,2.45
2024-04-13T09:24:18.236Z,2.50
2024-04-13T09:26:46.027Z,2.10
2024-04-13T09:29:14.569Z,2.83
2024-04-13T09:31:42.368Z,2.30
2024-04-13T09:34:18.114Z,2.33
2024-04-13T09:36:45.609Z,2.08
2024-04-13T09:39:23.677Z,2.28
2024-04-13T09:41:51.118Z,2.45
2024-04-13T09:44:26.063Z,2.42
2024-04-13T09:46:53.679Z,2.47
2024-04-13T09:49:20.919Z,2.97
2024-04-13T09:51:50.812Z,2.08
2024-04-13T09:54:18.322Z,2.00
2024-04-13T09:56:48.606Z,2.60
2024-04-13T09:59:19.102Z,2.88
2024-04-13T10:01:46.702Z,2.13
2024-04-13T10:04:14.561Z,2.40
2024-04-13T10:06:42.489Z,3.00
2024-04-13T10:09:13.111Z,2.83
2024-04-13T10:11:46.311Z,2.63
2024-04-13T10:14:18.857Z,2.65
2024-04-13T10:16:47.243Z,2.25
2024-04-13T10:19:15.441Z,2.13
2024-04-13T10:21:42.722Z,2.40
2024-04-13T10:24:15.909Z,2.50
2024-04-13T10:26:43.114Z,2.78
2024-04-13T10:29:10.781Z,2.72
2024-04-13T10:31:40.801Z,2.00
2024-04-13T10:34:11.871Z,2.65
2024-04-13T10:36:39.183Z,2.35
2024-04-13T10:39:22.583Z,1.88
2024-04-13T10:42:12.410Z,2.28
2024-04-13T10:44:40.334Z,2.03
2024-04-13T10:47:12.463Z,2.25
2024-04-13T10:49:51.162Z,1.83
2024-04-13T10:52:22.883Z,2.50
2024-04-13T10:54:55.833Z,2.40
2024-04-13T10:57:23.276Z,2.47
2024-04-13T10:59:50.476Z,2.65
2024-04-13T11:02:20.498Z,3.22
2024-04-13T11:04:48.472Z,2.40
2024-04-13T11:07:19.075Z,2.78
2024-04-13T11:09:47.381Z,2.42
2024-04-13T11:12:15.361Z,2.50
2024-04-13T11:14:42.825Z,2.42
2024-04-13T11:17:10.986Z,3.15
2024-04-13T11:19:41.168Z,2.63
2024-04-13T11:22:11.210Z,3.30
2024-04-13T11:24:39.685Z,3.28
2024-04-13T11:27:07.243Z,3.58
2024-04-13T11:29:35.172Z,2.10
2024-04-13T11:32:02.934Z,2.10
2024-04-13T11:34:31.598Z,1.92
2024-04-13T11:37:05.212Z,2.50
2024-04-13T11:39:34.901Z,2.10
2024-04-13T11:42:05.689Z,3.38
2024-04-13T11:44:32.885Z,2.97
2024-04-13T11:47:01.170Z,2.38
2024-04-13T11:49:32.378Z,2.45
2024-04-13T11:52:01.376Z,1.85
2024-04-13T11:54:31.352Z,1.98
2024-04-13T11:56:58.763Z,1.77
2024-04-13T11:59:26.137Z,2.25
2024-04-13T12:01:53.381Z,2.03
2024-04-13T12:04:23.308Z,2.78
2024-04-13T12:06:51.526Z,2.30
2024-04-13T12:09:19.274Z,2.22
2024-04-13T12:11:50.100Z,2.50
2024-04-13T12:14:17.490Z,2.25
2024-04-13T12:16:46.815Z,2.20
2024-04-13T12:19:14.194Z,2.20
2024-04-13T12:21:42.442Z,2.00
2024-04-13T12:24:09.671Z,2.30
2024-04-13T12:26:37.168Z,2.15
2024-04-13T12:29:07.096Z,1.70
2024-04-13T12:31:34.706Z,1.95
2024-04-13T12:34:01.923Z,1.85
2024-04-13T12:36:29.139Z,1.90
2024-04-13T12:38:56.270Z,2.28
2024-04-13T12:41:24.073Z,2.10
2024-04-13T12:43:51.248Z,2.45
2024-04-13T12:46:21.128Z,1.95
2024-04-13T12:48:48.376Z,1.40
2024-04-13T12:51:16.868Z,1.85
2024-04-13T12:53:45.438Z,1.75
2024-04-13T12:56:13.004Z,1.58
2024-04-13T12:58:40.287Z,1.50
2024-04-13T13:01:08.251Z,1.60
2024-04-13T13:03:41.187Z,1.92
2024-04-13T13:06:08.549Z,1.90
2024-04-13T13:08:35.922Z,1.52
2024-04-13T13:11:03.325Z,1.48
2024-04-13T13:13:30.540Z,1.80
2024-04-13T13:15:57.765Z,2.10
2024-04-13T13:18:25.143Z,1.85
2024-04-13T13:20:55.020Z,1.52
2024-04-13T13:23:22.393Z,1.50
2024-04-13T13:25:49.593Z,2.15
2024-04-13T13:28:17.148Z,1.20
2024-04-13T13:30:44.310Z,1.63
2024-04-13T13:33:11.775Z,1.50
2024-04-13T13:35:38.962Z,1.42
2024-04-13T13:38:08.776Z,1.50
2024-04-13T13:40:39.720Z,1.20
2024-04-13T13:43:07.542Z,1.23
2024-04-13T13:45:34.998Z,1.08
2024-04-13T13:48:02.276Z,1.15
2024-04-13T13:50:29.955Z,1.05
2024-04-13T13:52:57.093Z,1.02
2024-04-13T13:55:27.035Z,1.30
2024-04-13T13:57:54.199Z,1.27
2024-04-13T14:00:22.074Z,1.48
2024-04-13T14:02:49.385Z,1.23
2024-04-13T14:05:16.692Z,1.33
2024-04-13T14:07:43.814Z,0.80
2024-04-13T14:10:11.128Z,0.93
2024-04-13T14:12:41.067Z,0.93
2024-04-13T14:15:09.483Z,1.25
2024-04-13T14:17:36.669Z,1.50
2024-04-13T14:20:05.000Z,1.58
2024-04-13T14:22:33.290Z,1.42
2024-04-13T14:25:02.320Z,1.55
2024-04-13T14:27:29.767Z,1.92
2024-04-13T14:29:59.670Z,1.30
2024-04-13T14:32:27.288Z,1.30
2024-04-13T14:34:56.135Z,1.40
2024-04-13T14:37:23.635Z,1.23
2024-04-13T14:39:51.235Z,10.43
2024-04-13T14:42:20.008Z,3.72
2024-04-13T14:44:47.443Z,1.77
2024-04-13T14:47:17.206Z,1.40
2024-04-13T14:49:44.513Z,1.50
2024-04-13T14:52:11.878Z,1.30
2024-04-13T14:54:39.086Z,1.77
2024-04-13T14:57:06.571Z,1.20
2024-04-13T14:59:34.410Z,1.65
2024-04-13T15:02:01.581Z,1.20
2024-04-13T15:04:34.368Z,1.80
2024-04-13T15:07:02.127Z,1.55
2024-04-13T15:09:29.567Z,1.88
2024-04-13T15:11:56.753Z,1.77
2024-04-13T15:14:24.132Z,1.50
2024-04-13T15:16:52.451Z,1.33
2024-04-13T15:19:19.801Z,1.20
2024-04-13T15:21:49.756Z,1.17
2024-04-13T15:24:17.659Z,1.10
2024-04-13T15:26:44.879Z,1.40
2024-04-13T15:29:12.020Z,1.42
2024-04-13T15:31:39.117Z,1.17
2024-04-13T15:34:06.468Z,1.33
2024-04-13T15:36:33.729Z,1.10
2024-04-13T15:39:03.716Z,1.20
2024-04-13T15:41:30.921Z,1.42
2024-04-13T15:43:58.170Z,1.40
2024-04-13T15:46:25.292Z,0.85
2024-04-13T15:48:52.547Z,1.45
2024-04-13T15:51:20.087Z,0.95
2024-04-13T15:53:47.334Z,1.27
2024-04-13T15:56:17.179Z,1.05
2024-04-13T15:58:45.120Z,1.33
2024-04-13T16:01:12.342Z,1.10
2024-04-13T16:03:39.613Z,1.00
2024-04-13T16:06:07.520Z,1.45
2024-04-13T16:08:35.009Z,1.20
2024-04-13T16:11:02.279Z,1.33
2024-04-13T16:13:32.485Z,1.25
2024-04-13T16:16:11.954Z,3.10
2024-04-13T16:18:41.999Z,4.60
2024-04-13T16:21:09.300Z,3.55
2024-04-13T16:23:36.434Z,2.70
2024-04-13T16:26:04.496Z,2.60
2024-04-13T16:28:34.279Z,2.08
2024-04-13T16:31:02.169Z,2.50
2024-04-13T16:33:29.708Z,2.05
2024-04-13T16:35:56.906Z,4.15
2024-04-13T16:38:24.153Z,3.08
2024-04-13T16:40:51.278Z,2.67
2024-04-13T16:43:18.556Z,2.50
2024-04-13T16:45:51.931Z,2.20
2024-04-13T16:48:19.469Z,1.92
2024-04-13T16:50:55.420Z,1.80
2024-04-13T16:53:23.165Z,2.03
2024-04-13T16:55:50.343Z,1.30
2024-04-13T16:58:18.052Z,1.33
2024-04-13T17:00:48.830Z,2.03
2024-04-13T17:03:16.845Z,1.58
2024-04-13T17:05:44.222Z,1.40
2024-04-13T17:08:11.875Z,1.50
2024-04-13T17:10:39.139Z,1.30
2024-04-13T17:13:06.489Z,1.20
2024-04-13T17:15:34.330Z,1.27
2024-04-13T17:18:05.287Z,1.52
2024-04-13T17:20:33.091Z,1.40
2024-04-13T17:23:02.267Z,1.70
2024-04-13T17:25:30.635Z,1.10
2024-04-13T17:27:57.832Z,1.00
2024-04-13T17:30:25.382Z,1.00
2024-04-13T17:32:53.785Z,1.52
2024-04-13T17:35:24.674Z,3.20
2024-04-13T17:37:51.886Z,1.65
2024-04-13T17:40:19.235Z,1.70
2024-04-13T17:42:46.907Z,1.10
2024-04-13T17:45:16.244Z,1.52
2024-04-13T17:47:43.535Z,1.80
2024-04-13T17:50:11.065Z,1.73
2024-04-13T17:52:41.139Z,2.15
2024-04-13T17:55:09.595Z,2.40
2024-04-13T17:57:40.750Z,2.78
2024-04-13T18:00:10.663Z,2.05
2024-04-13T18:02:37.979Z,3.40
2024-04-13T18:05:05.686Z,2.55
2024-04-13T18:07:33.513Z,2.88
2024-04-13T18:10:03.759Z,3.33
2024-04-13T18:12:31.784Z,2.20
2024-04-13T18:14:59.060Z,1.83
2024-04-13T18:17:26.498Z,1.52
2024-04-13T18:19:53.774Z,1.73
2024-04-13T18:22:21.275Z,1.48
2024-04-13T18:24:50.866Z,1.83
2024-04-13T18:27:20.758Z,1.52
2024-04-13T18:29:48.202Z,2.08
2024-04-13T18:32:15.657Z,1.60
2024-04-13T18:34:46.159Z,1.77
2024-04-13T18:37:13.402Z,2.00
2024-04-13T18:39:40.923Z,1.88
2024-04-13T18:42:08.626Z,1.65
2024-04-13T18:44:38.563Z,1.58
2024-04-13T18:47:06.169Z,1.80
2024-04-13T18:49:38.580Z,1.77
2024-04-13T18:52:09.275Z,1.73
2024-04-13T18:54:36.551Z,1.52
2024-04-13T18:57:04.213Z,1.63
2024-04-13T18:59:31.765Z,1.75
2024-04-13T19:02:02.135Z,1.60
2024-04-13T19:04:29.627Z,1.85
2024-04-13T19:06:57.159Z,2.30
2024-04-13T19:09:24.500Z,1.83
2024-04-13T19:11:52.450Z,2.20
2024-04-13T19:14:20.407Z,1.48
2024-04-13T19:16:48.790Z,1.55
2024-04-13T19:19:19.726Z,1.42
2024-04-13T19:21:47.197Z,1.52
2024-04-13T19:24:14.825Z,1.77
2024-04-13T19:26:42.091Z,1.90
2024-04-13T19:29:09.366Z,1.70
2024-04-13T19:31:36.914Z,1.40
2024-04-13T19:34:08.306Z,1.33
2024-04-13T19:36:39.298Z,1.52
2024-04-13T19:39:07.295Z,1.92
2024-04-13T19:41:34.788Z,1.30
2024-04-13T19:44:01.971Z,1.40
2024-04-13T19:46:32.250Z,1.52
2024-04-13T19:48:59.455Z,1.52
2024-04-13T19:51:26.760Z,1.70
2024-04-13T19:53:57.305Z,1.45
2024-04-13T19:56:24.485Z,1.60
2024-04-13T19:58:51.701Z,1.48
2024-04-13T20:01:19.005Z,1.50
2024-04-13T20:03:46.448Z,1.58
2024-04-13T20:06:13.896Z,1.98
2024-04-13T20:08:42.938Z,2.10
2024-04-13T20:11:12.787Z,1.70
2024-04-13T20:13:41.159Z,1.77
2024-04-13T20:16:27.021Z,1.88
2024-04-13T20:18:54.378Z,1.75
2024-04-13T20:21:21.818Z,1.55
2024-04-13T20:23:49.247Z,1.88
2024-04-13T20:26:19.137Z,1.85
2024-04-13T20:28:46.452Z,1.77
2024-04-13T20:31:14.144Z,1.70
2024-04-13T20:33:43.128Z,1.88
2024-04-13T20:36:10.810Z,1.90
2024-04-13T20:38:38.135Z,1.67
2024-04-13T20:41:05.593Z,1.83
2024-04-13T20:43:38.679Z,1.92
2024-04-13T20:46:07.918Z,1.92
2024-04-13T20:48:35.443Z,2.13
2024-04-13T20:51:03.057Z,1.90
2024-04-13T20:53:30.457Z,1.52
2024-04-13T20:55:59.286Z,1.60
2024-04-13T20:58:27.018Z,1.90
2024-04-13T21:01:00.013Z,1.80
2024-04-13T21:03:27.518Z,2.00
2024-04-13T21:05:54.721Z,1.90
2024-04-13T21:08:22.152Z,2.00
2024-04-13T21:10:49.567Z,2.10
2024-04-13T21:13:16.786Z,2.20
2024-04-13T21:15:44.336Z,2.20
2024-04-13T21:18:14.527Z,1.90
2024-04-13T21:20:41.819Z,2.03
2024-04-13T21:23:09.185Z,2.30
2024-04-13T21:25:38.135Z,1.98
2024-04-13T21:28:06.650Z,2.20
2024-04-13T21:30:33.960Z,3.25
2024-04-13T21:33:01.569Z,2.08
2024-04-13T21:35:31.440Z,2.20
2024-04-13T21:37:59.274Z,2.20
2024-04-13T21:40:26.849Z,1.98
2024-04-13T21:42:54.321Z,2.00
2024-04-13T21:45:21.554Z,2.35
2024-04-13T21:47:48.737Z,1.52
2024-04-13T21:50:16.093Z,2.00
2024-04-13T21:52:45.900Z,2.08
2024-04-13T21:55:13.043Z,1.92
2024-04-13T21:57:40.243Z,2.38
2024-04-13T22:00:12.010Z,2.22
2024-04-13T22:02:41.067Z,1.98
2024-04-13T22:05:08.558Z,2.30
2024-04-13T22:07:35.717Z,2.08
2024-04-13T22:10:06.237Z,2.33
2024-04-13T22:12:33.771Z,2.33
2024-04-13T22:15:00.943Z,2.05
2024-04-13T22:17:28.192Z,2.40
2024-04-13T22:19:55.499Z,2.00
2024-04-13T22:22:22.995Z,2.00
2024-04-13T22:24:50.458Z,2.05
2024-04-13T22:27:20.311Z,2.10
2024-04-13T22:29:48.026Z,2.55
2024-04-13T22:32:15.570Z,1.98
2024-04-13T22:34:42.995Z,2.05
2024-04-13T22:37:10.222Z,1.95
2024-04-13T22:39:37.487Z,2.15
2024-04-13T22:42:05.652Z,2.42
2024-04-13T22:44:35.409Z,2.03
2024-04-13T22:47:02.636Z,2.22
2024-04-13T22:49:30.018Z,2.22
2024-04-13T22:51:57.298Z,2.25
2024-04-13T22:54:24.603Z,2.08
2024-04-13T22:56:51.789Z,2.42
2024-04-13T22:59:19.251Z,1.63
2024-04-13T23:01:49.099Z,1.75
2024-04-13T23:04:17.220Z,1.73
2024-04-13T23:06:44.630Z,1.90
2024-04-13T23:09:12.293Z,1.95
2024-04-13T23:11:40.179Z,2.10
2024-04-13T23:14:08.014Z,2.10
2024-04-13T23:16:35.271Z,1.75
2024-04-13T23:19:05.372Z,1.77
2024-04-13T23:21:37.312Z,1.92
2024-04-13T23:24:04.866Z,2.20
2024-04-13T23:26:32.796Z,2.10
2024-04-13T23:28:59.905Z,2.35
2024-04-13T23:31:27.200Z,2.25
2024-04-13T23:33:54.503Z,1.60
2024-04-13T23:36:24.353Z,1.67
2024-04-13T23:38:51.491Z,2.08
2024-04-13T23:41:18.618Z,1.90
2024-04-13T23:43:46.316Z,2.00
2024-04-13T23:46:13.487Z,2.30
2024-04-13T23:48:40.786Z,1.65
2024-04-13T23:51:07.983Z,1.80
2024-04-13T23:53:37.877Z,1.55
2024-04-13T23:56:06.117Z,1.77
2024-04-13T23:58:33.417Z,1.52
